Time;durP1;ratioP1;P1;durP2;ratioP2;P2;SDS_P1;SDS_P2;PMS_P1;PMS_P2;Temp;Humidity;BMP_temperature;BMP_pressure;BME280_temperature;BME280_humidity;BME280_pressure;Samples;Min_cycle;Max_cycle;Signal;HPM_P1;HPM_P2
2022/07/12 00:01:21;;;;;;;0.80;0.60;;;27.50;59.30;;;;;;5045278;28;20407;-84
2022/07/12 00:03:46;;;;;;;1.63;0.68;;;27.50;59.40;;;;;;5047944;28;20111;-84
2022/07/12 00:06:12;;;;;;;0.95;0.60;;;27.50;59.60;;;;;;5044186;28;20044;-83
2022/07/12 00:08:38;;;;;;;2.28;0.40;;;27.40;59.60;;;;;;5045017;28;20075;-84
2022/07/12 00:11:05;;;;;;;2.13;0.65;;;27.30;59.50;;;;;;5052349;28;20037;-84
2022/07/12 00:13:31;;;;;;;1.13;0.65;;;27.30;59.60;;;;;;5041132;28;20030;-85
2022/07/12 00:15:57;;;;;;;3.15;0.90;;;27.30;59.70;;;;;;5052754;28;20037;-84
2022/07/12 00:18:23;;;;;;;0.35;0.35;;;27.30;59.70;;;;;;5045497;28;20121;-85
2022/07/12 00:20:49;;;;;;;0.90;0.50;;;27.30;60.10;;;;;;5053586;28;20477;-85
2022/07/12 00:23:15;;;;;;;1.95;0.60;;;27.30;59.90;;;;;;5045926;28;20064;-83
2022/07/12 00:25:41;;;;;;;1.23;0.43;;;27.20;60.20;;;;;;5054840;28;20079;-84
2022/07/12 00:28:07;;;;;;;1.25;0.50;;;27.30;60.30;;;;;;5051801;28;20025;-85
2022/07/12 00:30:33;;;;;;;0.82;0.60;;;27.20;60.60;;;;;;5047335;28;20064;-85
2022/07/12 00:32:59;;;;;;;2.28;1.25;;;27.20;60.70;;;;;;5048750;28;20052;-87
2022/07/12 00:35:24;;;;;;;2.88;1.15;;;27.20;62.00;;;;;;5052528;28;20104;-88
2022/07/12 00:37:50;;;;;;;1.33;0.88;;;26.90;62.50;;;;;;5045050;28;20029;-88
2022/07/12 00:40:16;;;;;;;1.77;0.80;;;26.60;63.40;;;;;;5049512;28;20032;-87
2022/07/12 00:42:42;;;;;;;0.82;0.55;;;26.60;63.60;;;;;;5043989;28;20389;-86
2022/07/12 00:45:08;;;;;;;2.15;0.70;;;26.50;63.10;;;;;;5050459;28;20036;-86
2022/07/12 00:47:46;;;;;;;2.25;0.70;;;26.50;63.30;;;;;;5053440;28;20028;-86
2022/07/12 00:50:12;;;;;;;1.00;0.70;;;26.60;63.40;;;;;;5042412;28;20123;-86
2022/07/12 00:52:39;;;;;;;1.65;1.00;;;26.70;63.40;;;;;;5044378;28;20056;-85
2022/07/12 00:55:06;;;;;;;1.17;0.68;;;26.80;63.40;;;;;;5045872;28;20053;-85
2022/07/12 00:57:36;;;;;;;2.40;0.90;;;26.80;63.20;;;;;;5024999;28;20040;-84
2022/07/12 01:00:05;;;;;;;2.60;0.93;;;26.80;63.70;;;;;;5049872;28;20037;-84
2022/07/12 01:02:31;;;;;;;1.67;0.63;;;26.80;63.30;;;;;;5048406;28;20026;-84
2022/07/12 01:04:57;;;;;;;3.50;0.60;;;26.80;63.20;;;;;;5042685;28;20078;-84
2022/07/12 01:07:24;;;;;;;1.83;0.80;;;26.80;63.20;;;;;;5038003;28;20061;-84
2022/07/12 01:09:51;;;;;;;1.75;0.80;;;26.80;63.50;;;;;;5045892;28;20163;-84
2022/07/12 01:12:18;;;;;;;1.48;0.70;;;26.80;63.40;;;;;;5040474;28;20100;-84
2022/07/12 01:14:44;;;;;;;3.30;0.80;;;26.70;63.70;;;;;;5044039;28;20032;-86
2022/07/12 01:17:11;;;;;;;1.35;0.70;;;26.70;63.50;;;;;;5040827;28;20029;-86
2022/07/12 01:19:38;;;;;;;1.33;0.70;;;26.70;63.50;;;;;;5049102;28;20040;-86
2022/07/12 01:22:10;;;;;;;1.90;0.63;;;26.70;63.40;;;;;;5049220;28;20025;-86
2022/07/12 01:24:38;;;;;;;2.33;0.95;;;26.70;63.40;;;;;;5042365;28;20025;-85
2022/07/12 01:27:04;;;;;;;2.97;0.60;;;26.70;63.60;;;;;;5044126;28;20108;-85
2022/07/12 01:29:31;;;;;;;2.58;1.10;;;26.80;63.60;;;;;;5037443;28;20021;-85
2022/07/12 01:32:24;;;;;;;3.10;1.20;;;26.80;63.60;;;;;;5040781;28;20037;-85
2022/07/12 01:34:47;;;;;;;5.22;1.83;;;26.70;63.50;;;;;;5039547;28;20086;-86
2022/07/12 01:37:14;;;;;;;6.40;2.25;;;26.70;64.20;;;;;;5045867;28;20052;-85
2022/07/12 01:39:41;;;;;;;1.50;1.15;;;26.60;63.90;;;;;;5039653;28;20040;-86
2022/07/12 01:42:06;;;;;;;1.90;1.23;;;26.60;63.80;;;;;;5045137;28;20474;-84
2022/07/12 01:44:32;;;;;;;2.25;1.10;;;26.60;63.80;;;;;;5049398;28;20082;-86
2022/07/12 01:46:58;;;;;;;10.18;1.40;;;26.60;63.70;;;;;;5048667;28;20040;-89
2022/07/12 01:49:24;;;;;;;1.52;1.42;;;26.60;64.20;;;;;;5054206;28;20075;-90
2022/07/12 01:51:50;;;;;;;5.50;1.00;;;26.60;63.50;;;;;;5048250;28;20026;-89
2022/07/12 01:54:15;;;;;;;2.22;1.15;;;26.60;63.40;;;;;;5028070;28;20025;-88
2022/07/12 01:56:41;;;;;;;3.00;1.63;;;26.60;63.40;;;;;;5050953;28;20060;-88
2022/07/12 01:59:07;;;;;;;3.22;1.50;;;26.60;63.50;;;;;;5042795;28;20044;-87
2022/07/12 02:01:36;;;;;;;2.03;1.75;;;26.60;63.60;;;;;;5050001;28;20028;-86
2022/07/12 02:04:05;;;;;;;3.55;1.90;;;26.60;63.70;;;;;;5042374;28;20079;-84
2022/07/12 02:06:31;;;;;;;4.38;1.73;;;26.50;64.00;;;;;;5043782;28;20104;-85
2022/07/12 02:08:57;;;;;;;3.67;1.75;;;26.50;64.50;;;;;;5038646;28;20450;-84
2022/07/12 02:11:22;;;;;;;4.05;2.10;;;26.40;64.30;;;;;;5039563;28;20052;-86
2022/07/12 02:13:48;;;;;;;4.45;1.60;;;26.40;64.60;;;;;;5039608;28;20385;-86
2022/07/12 02:16:14;;;;;;;2.10;1.27;;;26.30;64.70;;;;;;5042198;28;20025;-85
2022/07/12 02:18:39;;;;;;;3.08;1.60;;;26.30;64.70;;;;;;5047915;28;20033;-87
2022/07/12 02:21:05;;;;;;;2.85;1.80;;;26.30;64.80;;;;;;5049271;28;20052;-86
2022/07/12 02:23:31;;;;;;;2.75;1.35;;;26.30;65.20;;;;;;5051279;28;20079;-86
2022/07/12 02:25:56;;;;;;;6.35;1.83;;;26.20;65.00;;;;;;5044531;28;20362;-85
2022/07/12 02:28:22;;;;;;;1.70;1.30;;;26.20;65.70;;;;;;5040705;28;20098;-85
2022/07/12 02:30:48;;;;;;;1.77;1.02;;;26.20;65.20;;;;;;5046676;28;20041;-87
2022/07/12 02:33:15;;;;;;;2.95;1.20;;;26.20;65.30;;;;;;5048457;28;20044;-84
2022/07/12 02:35:42;;;;;;;1.05;0.90;;;26.20;65.20;;;;;;5039642;28;20103;-85
2022/07/12 02:38:08;;;;;;;1.55;1.10;;;26.20;65.20;;;;;;5039071;28;20110;-85
2022/07/12 02:43:17;;;;;;;1.45;0.90;;;26.10;65.10;;;;;;5041850;28;20500;-85
2022/07/12 02:45:43;;;;;;;1.33;0.90;;;26.10;65.10;;;;;;5036753;28;20029;-85
2022/07/12 02:48:12;;;;;;;1.80;1.00;;;26.10;65.10;;;;;;5039229;28;20045;-86
2022/07/12 02:50:38;;;;;;;1.33;0.98;;;26.10;65.20;;;;;;5019428;28;20378;-86
2022/07/12 02:53:05;;;;;;;1.23;0.90;;;26.00;65.10;;;;;;5037837;28;20041;-86
2022/07/12 02:55:30;;;;;;;3.60;1.17;;;26.00;65.20;;;;;;5040298;28;20020;-87
2022/07/12 02:57:56;;;;;;;2.28;0.82;;;26.00;65.10;;;;;;5041122;28;20048;-87
2022/07/12 03:00:22;;;;;;;2.35;0.95;;;26.00;65.10;;;;;;5039472;28;20042;-87
2022/07/12 03:02:47;;;;;;;1.33;1.00;;;26.00;65.10;;;;;;5031773;28;20132;-87
2022/07/12 03:05:13;;;;;;;2.38;1.20;;;26.00;65.10;;;;;;5048392;28;20056;-86
2022/07/12 03:07:39;;;;;;;2.42;0.93;;;26.00;65.00;;;;;;5047968;28;20040;-86
2022/07/12 03:10:05;;;;;;;3.53;1.35;;;26.00;65.10;;;;;;5044685;28;20029;-87
2022/07/12 03:12:31;;;;;;;1.08;0.77;;;26.00;65.10;;;;;;5038598;28;20097;-78
2022/07/12 03:14:56;;;;;;;2.92;1.00;;;26.00;65.20;;;;;;5021857;28;20124;-78
2022/07/12 03:17:22;;;;;;;2.15;0.93;;;26.00;65.20;;;;;;5035336;28;20033;-78
2022/07/12 03:19:48;;;;;;;2.63;0.90;;;26.00;65.00;;;;;;5042927;28;20025;-78
2022/07/12 03:22:14;;;;;;;1.92;1.30;;;26.00;65.00;;;;;;5028011;28;20121;-79
2022/07/12 03:24:40;;;;;;;3.83;1.20;;;26.00;65.10;;;;;;5043198;28;20120;-78
2022/07/12 03:27:06;;;;;;;4.38;1.80;;;26.00;65.30;;;;;;5039515;28;20041;-77
2022/07/12 03:29:32;;;;;;;4.57;1.60;;;26.00;65.90;;;;;;5044316;28;20033;-77
2022/07/12 03:31:57;;;;;;;1.95;1.35;;;25.90;65.70;;;;;;5022046;28;20410;-77
2022/07/12 03:34:23;;;;;;;3.13;1.65;;;25.80;65.80;;;;;;5014268;28;20041;-76
2022/07/12 03:36:49;;;;;;;2.85;1.65;;;25.90;66.10;;;;;;5025503;28;20025;-77
2022/07/12 03:39:15;;;;;;;2.70;1.67;;;25.90;66.20;;;;;;5016979;28;20053;-78
2022/07/12 03:41:41;;;;;;;3.25;1.63;;;25.80;66.90;;;;;;5027798;28;20506;-77
2022/07/12 03:44:06;;;;;;;1.45;0.93;;;25.80;66.90;;;;;;5024894;28;20437;-81
2022/07/12 03:46:35;;;;;;;5.45;1.75;;;25.80;66.60;;;;;;5022094;28;20045;-81
2022/07/12 03:49:01;;;;;;;2.03;1.27;;;25.70;67.30;;;;;;5021867;28;20057;-80
2022/07/12 03:51:27;;;;;;;2.88;1.40;;;25.70;67.30;;;;;;5014777;28;20056;-80
2022/07/12 03:53:53;;;;;;;5.47;1.42;;;25.60;67.30;;;;;;5019418;28;20040;-80
2022/07/12 03:59:03;;;;;;;1.15;0.95;;;25.60;67.30;;;;;;5019104;28;20092;-80
2022/07/12 04:01:29;;;;;;;1.13;0.93;;;25.70;67.40;;;;;;5017172;28;20030;-80
2022/07/12 04:03:56;;;;;;;4.38;1.50;;;25.70;67.20;;;;;;5017651;28;20497;-80
2022/07/12 04:06:21;;;;;;;4.20;1.08;;;25.80;67.50;;;;;;5020108;28;20048;-80
2022/07/12 04:08:47;;;;;;;1.63;1.15;;;25.80;67.20;;;;;;5026897;28;20397;-81
2022/07/12 04:11:13;;;;;;;2.13;1.08;;;25.80;67.30;;;;;;5022252;28;20389;-79
2022/07/12 04:13:39;;;;;;;2.20;1.33;;;25.80;67.20;;;;;;5019004;28;20033;-80
2022/07/12 04:16:05;;;;;;;1.55;0.90;;;25.80;67.40;;;;;;5024628;28;20034;-79
2022/07/12 04:18:31;;;;;;;3.90;1.25;;;25.70;67.20;;;;;;5023478;28;20030;-80
2022/07/12 04:20:57;;;;;;;1.67;0.90;;;25.70;67.60;;;;;;5021521;28;20079;-81
2022/07/12 04:23:22;;;;;;;1.35;0.85;;;25.70;67.50;;;;;;5017824;28;20124;-79
2022/07/12 04:25:48;;;;;;;1.65;0.95;;;25.70;67.60;;;;;;5021341;28;20026;-79
2022/07/12 04:28:14;;;;;;;3.47;1.10;;;25.70;67.60;;;;;;5020262;28;20029;-78
2022/07/12 04:30:39;;;;;;;2.25;1.00;;;25.60;67.70;;;;;;5028764;28;20033;-79
2022/07/12 04:33:05;;;;;;;4.22;1.40;;;25.70;67.90;;;;;;5043839;28;20029;-79
2022/07/12 04:35:31;;;;;;;4.70;1.40;;;25.70;67.80;;;;;;5037692;28;20060;-79
2022/07/12 04:37:57;;;;;;;2.78;1.30;;;25.70;68.20;;;;;;5048253;28;20469;-79
2022/07/12 04:40:22;;;;;;;2.03;1.40;;;25.60;68.20;;;;;;5036938;28;20080;-79
2022/07/12 04:42:48;;;;;;;2.85;1.80;;;25.60;68.30;;;;;;5037317;28;20036;-79
2022/07/12 04:45:14;;;;;;;3.83;1.70;;;25.60;68.70;;;;;;5037872;28;20092;-79
2022/07/12 04:47:39;;;;;;;1.90;1.40;;;25.60;68.60;;;;;;5040672;28;20038;-79
2022/07/12 04:50:07;;;;;;;2.38;1.10;;;25.70;68.60;;;;;;5038622;28;20401;-79
2022/07/12 04:52:34;;;;;;;1.98;1.35;;;25.70;68.60;;;;;;5039276;28;20020;-79
2022/07/12 04:54:59;;;;;;;2.38;0.90;;;25.70;68.40;;;;;;5048840;28;20112;-79
2022/07/12 04:57:25;;;;;;;1.67;0.77;;;25.70;68.50;;;;;;5048954;28;20115;-78
2022/07/12 04:59:51;;;;;;;1.25;0.90;;;25.70;68.20;;;;;;5041336;28;20063;-79
2022/07/12 05:02:16;;;;;;;3.42;1.20;;;25.70;68.00;;;;;;5044311;28;20033;-78
2022/07/12 05:04:42;;;;;;;3.38;1.10;;;25.80;67.70;;;;;;5043006;28;20036;-80
2022/07/12 05:07:07;;;;;;;2.85;1.10;;;25.80;67.30;;;;;;5043773;28;20354;-78
2022/07/12 05:09:33;;;;;;;1.48;1.00;;;25.80;67.10;;;;;;5045090;28;20462;-78
2022/07/12 05:11:59;;;;;;;3.85;1.00;;;25.80;66.80;;;;;;5045101;28;20033;-78
2022/07/12 05:14:25;;;;;;;1.42;0.90;;;25.80;66.50;;;;;;5048496;28;20036;-78
2022/07/12 05:16:50;;;;;;;1.90;0.95;;;25.90;65.90;;;;;;5048850;28;20512;-80
2022/07/12 05:19:17;;;;;;;1.75;0.73;;;25.90;65.50;;;;;;5045301;28;20052;-79
2022/07/12 05:21:43;;;;;;;2.03;1.10;;;25.90;64.40;;;;;;5030579;28;20094;-77
2022/07/12 05:24:08;;;;;;;1.75;0.65;;;26.00;63.20;;;;;;5020319;28;20489;-78
2022/07/12 05:26:34;;;;;;;1.58;0.60;;;26.00;63.20;;;;;;5043200;28;20017;-78
2022/07/12 05:29:00;;;;;;;1.75;0.90;;;26.00;62.80;;;;;;5044383;28;20040;-78
2022/07/12 05:31:26;;;;;;;3.05;1.10;;;26.00;62.10;;;;;;5047048;28;20379;-80
2022/07/12 05:33:53;;;;;;;4.65;1.05;;;26.00;61.30;;;;;;5049347;28;20508;-79
2022/07/12 05:36:19;;;;;;;1.38;0.80;;;26.00;58.30;;;;;;5043511;28;20071;-80
2022/07/12 05:38:45;;;;;;;1.17;0.60;;;26.00;59.90;;;;;;5049324;28;20025;-80
2022/07/12 05:41:11;;;;;;;2.13;0.90;;;26.00;59.90;;;;;;5055842;28;20497;-80
2022/07/12 05:43:37;;;;;;;1.20;0.75;;;26.10;59.70;;;;;;5055904;28;20036;-85
2022/07/12 05:46:03;;;;;;;1.60;0.80;;;26.00;58.30;;;;;;5039226;28;20029;-82
2022/07/12 05:48:29;;;;;;;4.43;0.80;;;26.00;58.40;;;;;;5041818;28;20113;-82
2022/07/12 05:50:55;;;;;;;1.83;0.80;;;26.00;58.30;;;;;;5040830;28;20139;-83
2022/07/12 05:53:23;;;;;;;1.95;0.90;;;26.10;58.50;;;;;;5025906;28;20033;-86
2022/07/12 05:55:53;;;;;;;2.03;0.65;;;26.10;58.40;;;;;;5036755;28;20155;-84
2022/07/12 05:58:19;;;;;;;;;;;26.10;58.10;;;;;;5039950;28;20078;-82
2022/07/12 06:00:46;;;;;;;1.23;0.70;;;26.10;57.70;;;;;;5050247;28;19909;-80
2022/07/12 06:03:13;;;;;;;1.15;0.70;;;26.10;57.50;;;;;;5042749;28;20044;-86
2022/07/12 06:05:39;;;;;;;3.63;1.10;;;26.20;57.60;;;;;;5044701;28;20025;-82
2022/07/12 06:08:06;;;;;;;1.25;0.70;;;26.20;57.50;;;;;;5040278;28;20507;-81
2022/07/12 06:10:32;;;;;;;1.55;0.93;;;26.20;57.60;;;;;;5040045;28;20017;-82
2022/07/12 06:13:01;;;;;;;1.00;0.63;;;26.20;56.70;;;;;;5041041;28;20029;-82
2022/07/12 06:15:27;;;;;;;4.28;0.80;;;26.20;56.90;;;;;;5039365;28;20104;-81
2022/07/12 06:17:53;;;;;;;3.05;0.98;;;26.20;56.50;;;;;;5042129;28;20455;-82
2022/07/12 06:20:19;;;;;;;2.10;1.10;;;26.30;56.70;;;;;;5043235;28;20025;-83
2022/07/12 06:22:44;;;;;;;1.30;0.68;;;26.30;56.60;;;;;;5026396;28;20393;-83
2022/07/12 06:25:10;;;;;;;2.25;0.73;;;26.30;56.00;;;;;;5045704;28;20031;-84
2022/07/12 06:27:36;;;;;;;2.20;0.70;;;26.30;55.80;;;;;;5027964;28;20029;-83
2022/07/12 06:30:02;;;;;;;1.67;0.85;;;26.20;55.20;;;;;;5049461;28;20030;-79
2022/07/12 06:32:27;;;;;;;0.88;0.60;;;26.30;55.80;;;;;;5034755;28;20052;-83
2022/07/12 06:34:53;;;;;;;2.50;0.70;;;26.30;55.90;;;;;;5044541;28;20069;-83
2022/07/12 06:37:21;;;;;;;1.25;0.57;;;26.30;55.70;;;;;;5044981;28;20050;-84
2022/07/12 06:39:47;;;;;;;0.50;0.50;;;26.30;55.40;;;;;;5036905;28;20082;-85
2022/07/12 06:42:13;;;;;;;3.60;0.90;;;26.40;55.40;;;;;;5042031;28;20539;-80
2022/07/12 06:44:39;;;;;;;2.25;0.70;;;26.40;54.40;;;;;;5039069;28;20032;-84
2022/07/12 06:47:05;;;;;;;1.52;0.80;;;26.40;54.70;;;;;;5049000;28;20053;-83
2022/07/12 06:49:35;;;;;;;2.25;0.75;;;26.40;54.40;;;;;;5031112;28;20068;-84
2022/07/12 06:52:00;;;;;;;1.52;0.70;;;26.40;54.40;;;;;;5021332;28;20071;-84
2022/07/12 06:54:26;;;;;;;1.70;0.65;;;26.50;54.50;;;;;;5044155;28;21138;-87
2022/07/12 06:56:52;;;;;;;1.33;0.80;;;26.60;54.40;;;;;;5051172;28;20543;-83
2022/07/12 06:59:17;;;;;;;2.90;0.82;;;26.60;52.70;;;;;;5052197;28;20416;-84
2022/07/12 07:01:43;;;;;;;0.88;0.60;;;26.60;53.40;;;;;;5051466;28;20037;-83
2022/07/12 07:04:09;;;;;;;1.35;0.60;;;26.60;53.00;;;;;;5051726;28;20767;-83
2022/07/12 07:06:35;;;;;;;1.58;0.70;;;26.60;51.80;;;;;;5047814;28;20028;-82
2022/07/12 07:09:00;;;;;;;55.35;45.75;;;26.70;52.60;;;;;;5053257;28;20060;-83
2022/07/12 07:11:26;;;;;;;157.80;140.80;;;26.80;52.70;;;;;;5050692;28;20059;-83
2022/07/12 07:13:53;;;;;;;90.32;62.47;;;26.80;51.80;;;;;;5052394;28;20029;-83
2022/07/12 07:16:24;;;;;;;8.38;7.40;;;26.90;52.40;;;;;;5041175;28;20048;-82
2022/07/12 07:18:50;;;;;;;4.05;1.65;;;26.80;51.50;;;;;;5042185;28;20036;-83
2022/07/12 07:21:16;;;;;;;0.73;0.65;;;26.80;50.40;;;;;;5051122;28;20025;-82
2022/07/12 07:23:41;;;;;;;2.25;1.15;;;26.80;50.70;;;;;;5051163;28;20036;-84
2022/07/12 07:26:07;;;;;;;2.03;1.00;;;26.90;50.70;;;;;;5050883;28;20083;-85
2022/07/12 07:30:51;;;;;;;3.50;0.98;;;27.00;51.30;;;;;;5051090;28;20279;-85
2022/07/12 07:31:19;;;;;;;1.70;0.43;;;26.90;50.60;;;;;;5041492;28;20049;-85
2022/07/12 07:33:44;;;;;;;0.60;0.40;;;27.00;51.20;;;;;;5050541;28;20139;-83
2022/07/12 07:36:10;;;;;;;1.67;0.85;;;27.10;51.30;;;;;;5034025;28;20127;-85
2022/07/12 07:38:36;;;;;;;2.05;0.90;;;27.10;51.10;;;;;;5050580;28;20035;-84
2022/07/12 07:41:04;;;;;;;6.72;1.35;;;27.20;50.10;;;;;;5048215;28;20496;-84
2022/07/12 07:43:30;;;;;;;1.75;0.60;;;27.10;49.30;;;;;;5044896;28;20037;-86
2022/07/12 07:45:57;;;;;;;3.40;0.98;;;27.10;50.80;;;;;;5048994;28;20044;-85
2022/07/12 07:48:23;;;;;;;0.73;0.50;;;27.00;50.50;;;;;;5051061;28;20377;-85
2022/07/12 07:50:49;;;;;;;1.20;0.60;;;27.00;51.30;;;;;;5032656;28;20124;-85
2022/07/12 07:53:15;;;;;;;1.17;0.45;;;27.00;51.20;;;;;;5033363;28;20104;-85
2022/07/12 07:55:41;;;;;;;0.63;0.40;;;27.10;51.40;;;;;;5032000;28;20056;-83
2022/07/12 07:58:06;;;;;;;1.95;0.88;;;27.20;51.60;;;;;;5032516;28;20477;-84
2022/07/12 08:00:32;;;;;;;3.83;0.50;;;27.30;51.60;;;;;;5030862;28;20362;-83
2022/07/12 08:02:58;;;;;;;1.38;0.70;;;27.30;51.20;;;;;;5045589;28;20501;-83
2022/07/12 08:05:24;;;;;;;1.55;0.75;;;27.40;51.70;;;;;;5046099;28;20099;-85
2022/07/12 08:07:50;;;;;;;1.63;0.60;;;27.40;51.70;;;;;;5049138;28;20035;-85
2022/07/12 08:10:16;;;;;;;2.17;0.82;;;27.50;51.90;;;;;;5050751;28;20063;-84
2022/07/12 08:12:41;;;;;;;1.23;0.57;;;27.60;51.80;;;;;;5053700;28;20032;-83
2022/07/12 08:15:08;;;;;;;3.95;0.75;;;27.60;51.40;;;;;;5054168;28;20041;-83
2022/07/12 08:17:34;;;;;;;2.55;0.77;;;27.70;51.40;;;;;;5056222;28;20017;-86
2022/07/12 08:20:00;;;;;;;0.80;0.63;;;27.70;51.30;;;;;;5056103;28;20508;-85
2022/07/12 08:22:25;;;;;;;2.60;0.90;;;27.80;51.20;;;;;;5055780;28;20036;-85
2022/07/12 08:24:51;;;;;;;0.93;0.60;;;27.80;51.40;;;;;;5065220;28;20029;-84
2022/07/12 08:27:17;;;;;;;0.47;0.38;;;27.90;51.50;;;;;;5053854;28;20033;-83
2022/07/12 08:29:42;;;;;;;0.73;0.50;;;28.00;51.60;;;;;;5054456;28;20107;-84
2022/07/12 08:32:18;;;;;;;2.85;1.02;;;28.10;51.50;;;;;;5054228;28;20551;-82
2022/07/12 08:34:47;;;;;;;1.65;1.05;;;28.10;50.70;;;;;;5037565;28;20128;-84
2022/07/12 08:37:12;;;;;;;2.58;0.90;;;28.10;48.30;;;;;;5036808;28;20029;-87
2022/07/12 08:39:38;;;;;;;2.20;0.93;;;28.10;49.20;;;;;;5054780;28;20128;-85
2022/07/12 08:42:07;;;;;;;1.13;0.80;;;28.20;50.80;;;;;;5054664;28;20017;-84
2022/07/12 08:44:33;;;;;;;3.55;1.10;;;28.20;50.80;;;;;;5053792;28;20021;-83
2022/07/12 08:46:58;;;;;;;3.38;0.98;;;28.30;49.90;;;;;;5054137;28;20085;-83
2022/07/12 08:49:28;;;;;;;1.15;0.52;;;28.40;50.00;;;;;;5054490;28;20031;-83
2022/07/12 08:51:53;;;;;;;2.63;0.90;;;28.40;50.10;;;;;;5036919;28;20167;-87
2022/07/12 08:54:19;;;;;;;1.00;0.70;;;28.50;49.60;;;;;;5054516;28;20097;-85
2022/07/12 08:56:45;;;;;;;6.40;1.00;;;28.50;48.70;;;;;;5041052;28;20059;-85
2022/07/12 08:59:21;;;;;;;1.92;0.70;;;28.50;49.00;;;;;;5054485;28;20043;-86
2022/07/12 09:01:52;;;;;;;2.15;1.20;;;28.60;49.00;;;;;;5054614;28;20370;-84
2022/07/12 09:04:23;;;;;;;2.83;0.60;;;28.60;49.50;;;;;;5054906;28;20032;-84
2022/07/12 09:06:55;;;;;;;1.73;0.80;;;28.80;49.80;;;;;;5034795;28;20083;-86
2022/07/12 09:09:30;;;;;;;3.70;0.80;;;28.80;49.80;;;;;;5047840;28;20479;-86
2022/07/12 09:11:58;;;;;;;4.18;0.95;;;29.00;50.90;;;;;;5054931;28;20025;-84
2022/07/12 09:14:26;;;;;;;1.58;0.95;;;29.00;51.20;;;;;;5055282;28;20037;-84
2022/07/12 09:17:03;;;;;;;2.50;0.68;;;29.00;52.40;;;;;;5029771;28;20029;-84
2022/07/12 09:19:31;;;;;;;2.28;0.70;;;29.00;52.60;;;;;;5054390;28;20465;-84
2022/07/12 09:21:58;;;;;;;1.30;0.80;;;29.00;52.60;;;;;;5072452;28;20025;-83
2022/07/12 09:24:25;;;;;;;4.43;1.27;;;29.10;52.70;;;;;;5058758;28;20492;-88
2022/07/12 09:26:59;;;;;;;1.70;0.70;;;29.10;52.70;;;;;;5054014;28;20100;-84
2022/07/12 09:29:30;;;;;;;7.00;1.40;;;29.20;53.00;;;;;;5054492;28;20543;-84
2022/07/12 09:37:25;;;;;;;1.30;0.80;;;29.40;51.70;;;;;;5041927;28;20105;-87
2022/07/12 09:39:54;;;;;;;1.80;1.10;;;29.40;51.90;;;;;;5054612;28;20048;-87
2022/07/12 09:42:21;;;;;;;1.65;0.77;;;29.50;51.50;;;;;;5036697;28;20135;-85
2022/07/12 09:44:49;;;;;;;1.08;0.93;;;29.60;51.40;;;;;;5051360;28;20024;-85
2022/07/12 09:47:18;;;;;;;1.10;0.98;;;29.60;51.50;;;;;;5044129;28;21924;-85
2022/07/12 09:49:44;;;;;;;2.97;0.82;;;29.70;51.40;;;;;;5052723;28;20033;-83
2022/07/12 09:52:20;;;;;;;4.45;1.10;;;29.70;51.20;;;;;;5053369;28;20028;-84
2022/07/12 09:54:49;;;;;;;0.93;0.60;;;29.80;51.40;;;;;;5048978;28;20033;-83
2022/07/12 09:57:26;;;;;;;3.03;0.75;;;29.80;51.40;;;;;;5053024;28;20083;-83
2022/07/12 09:59:53;;;;;;;2.17;1.20;;;29.90;51.50;;;;;;5054408;28;20033;-83
2022/07/12 10:02:20;;;;;;;1.10;0.95;;;30.00;50.70;;;;;;5052743;28;20408;-83
2022/07/12 10:04:47;;;;;;;3.50;1.02;;;30.10;51.20;;;;;;5050229;28;20021;-83
2022/07/12 10:07:15;;;;;;;0.80;0.70;;;30.10;51.70;;;;;;5053720;28;20470;-85
2022/07/12 10:09:44;;;;;;;1.42;0.80;;;30.20;51.60;;;;;;5053826;28;20481;-85
2022/07/12 10:12:11;;;;;;;2.47;0.90;;;30.30;52.30;;;;;;5054930;28;20051;-85
2022/07/12 10:14:42;;;;;;;2.80;0.93;;;30.30;52.70;;;;;;5034800;28;20053;-84
2022/07/12 10:17:12;;;;;;;2.95;0.90;;;30.40;52.80;;;;;;5016258;28;20103;-83
2022/07/12 10:19:39;;;;;;;2.45;1.00;;;30.50;52.70;;;;;;5047620;28;20468;-84
2022/07/12 10:22:20;;;;;;;2.20;1.40;;;30.60;52.20;;;;;;5054226;28;20102;-85
2022/07/12 10:24:54;;;;;;;2.47;0.90;;;30.70;51.30;;;;;;5052568;28;20044;-85
2022/07/12 10:27:20;;;;;;;2.10;1.27;;;30.70;51.80;;;;;;5052170;28;20082;-83
2022/07/12 10:29:49;;;;;;;1.50;0.80;;;30.80;51.90;;;;;;5047623;28;20044;-84
2022/07/12 10:32:24;;;;;;;4.70;1.00;;;30.90;51.50;;;;;;5046181;28;20389;-79
2022/07/12 10:35:07;;;;;;;1.83;0.80;;;30.90;51.80;;;;;;5049455;28;20025;-84
2022/07/12 10:37:35;;;;;;;1.50;0.90;;;31.00;51.20;;;;;;5033871;28;20489;-84
2022/07/12 10:40:20;;;;;;;1.40;0.65;;;31.10;50.50;;;;;;5043592;28;20087;-85
2022/07/12 10:43:02;;;;;;;1.75;0.90;;;31.20;49.60;;;;;;5044737;28;20458;-86
2022/07/12 10:45:43;;;;;;;2.28;1.00;;;31.30;50.60;;;;;;5048785;28;20025;-87
2022/07/12 10:48:21;;;;;;;2.30;0.70;;;31.30;49.80;;;;;;5049339;28;20044;-85
2022/07/12 10:50:55;;;;;;;1.95;0.60;;;31.30;50.90;;;;;;5029979;28;20484;-86
2022/07/12 10:53:30;;;;;;;1.77;0.93;;;31.50;50.20;;;;;;5047894;28;20033;-86
2022/07/12 10:56:04;;;;;;;0.82;0.52;;;31.60;49.40;;;;;;5050143;28;20129;-87
2022/07/12 10:58:31;;;;;;;2.85;0.75;;;31.80;49.10;;;;;;5048613;28;20517;-87
2022/07/12 11:00:58;;;;;;;1.25;0.70;;;31.80;48.50;;;;;;5050454;28;20429;-87
2022/07/12 11:03:30;;;;;;;1.17;0.90;;;31.90;48.40;;;;;;5047801;28;20549;-87
2022/07/12 11:06:03;;;;;;;1.70;0.93;;;32.00;48.20;;;;;;5031755;28;20029;-87
2022/07/12 11:08:29;;;;;;;2.83;0.90;;;32.00;47.60;;;;;;5033606;28;20033;-86
2022/07/12 11:10:56;;;;;;;2.42;0.80;;;32.10;48.10;;;;;;5049459;28;20033;-87
2022/07/12 11:13:25;;;;;;;0.80;0.57;;;32.20;48.50;;;;;;5054448;28;20144;-83
2022/07/12 11:16:00;;;;;;;2.05;0.80;;;32.30;48.60;;;;;;5048236;28;20082;-86
2022/07/12 11:18:34;;;;;;;1.40;0.70;;;32.40;46.80;;;;;;5050513;28;20041;-88
2022/07/12 11:21:01;;;;;;;3.97;0.70;;;32.50;47.30;;;;;;5042688;28;20033;-89
2022/07/12 11:23:28;;;;;;;1.63;0.90;;;32.60;47.30;;;;;;5049055;28;20035;-85
2022/07/12 11:25:55;;;;;;;1.40;0.73;;;32.80;47.60;;;;;;5054428;28;20033;-85
2022/07/12 11:28:21;;;;;;;1.77;0.95;;;33.00;47.10;;;;;;5043460;28;20040;-84
2022/07/12 11:30:53;;;;;;;1.77;0.93;;;33.20;47.50;;;;;;5047072;28;20025;-83
2022/07/12 11:33:25;;;;;;;2.78;0.80;;;33.30;47.40;;;;;;5048045;28;20036;-83
2022/07/12 11:35:52;;;;;;;2.60;1.20;;;33.60;47.20;;;;;;5052387;28;20099;-84
2022/07/12 11:38:28;;;;;;;7.18;1.02;;;33.90;46.80;;;;;;5026067;28;20029;-82
2022/07/12 11:41:03;;;;;;;3.78;1.00;;;34.40;46.00;;;;;;5045627;28;20116;-84
2022/07/12 11:43:30;;;;;;;1.00;0.70;;;34.80;43.30;;;;;;5047750;28;20033;-84
2022/07/12 11:45:56;;;;;;;2.80;0.82;;;35.00;42.90;;;;;;5029704;28;20025;-84
2022/07/12 11:48:22;;;;;;;4.43;0.90;;;35.20;42.20;;;;;;5048822;28;20036;-82
2022/07/12 11:50:53;;;;;;;1.75;0.82;;;35.40;42.10;;;;;;5047661;28;20025;-85
2022/07/12 11:53:24;;;;;;;2.15;0.93;;;35.60;42.10;;;;;;5047650;28;20104;-85
2022/07/12 11:55:56;;;;;;;2.90;0.90;;;35.90;40.90;;;;;;5046116;28;20029;-85
2022/07/12 11:58:23;;;;;;;1.60;0.52;;;36.10;40.00;;;;;;5030806;28;20471;-84
2022/07/12 12:00:49;;;;;;;3.33;0.95;;;36.20;40.90;;;;;;5047638;28;20634;-86
2022/07/12 12:03:17;;;;;;;1.55;0.90;;;36.30;39.20;;;;;;5046921;28;20354;-85
2022/07/12 12:05:47;;;;;;;3.15;0.85;;;36.40;40.10;;;;;;5046740;28;20025;-85
2022/07/12 12:08:14;;;;;;;1.23;0.70;;;36.50;39.80;;;;;;5046160;28;20032;-86
2022/07/12 12:10:41;;;;;;;2.20;0.85;;;36.60;39.80;;;;;;5044778;28;20624;-85
2022/07/12 12:13:17;;;;;;;5.30;0.75;;;36.60;37.00;;;;;;5044763;28;20388;-85
2022/07/12 12:15:51;;;;;;;1.05;0.75;;;36.60;37.50;;;;;;5029136;28;20023;-84
2022/07/12 12:18:16;;;;;;;1.08;0.80;;;36.60;37.30;;;;;;5046454;28;20128;-84
2022/07/12 12:20:42;;;;;;;1.67;0.88;;;36.80;37.50;;;;;;5048478;28;20039;-86
2022/07/12 12:23:19;;;;;;;1.42;0.70;;;36.80;37.20;;;;;;5046969;28;20060;-84
2022/07/12 12:25:45;;;;;;;2.75;0.50;;;37.00;35.00;;;;;;5046062;28;20033;-85
2022/07/12 12:28:12;;;;;;;1.13;0.43;;;37.10;36.20;;;;;;5045767;28;20032;-86
2022/07/12 12:30:59;;;;;;;1.70;0.82;;;37.20;34.50;;;;;;5043397;28;20553;-84
2022/07/12 12:33:39;;;;;;;2.88;0.70;;;36.90;34.60;;;;;;5048138;28;20037;-86
2022/07/12 12:36:34;;;;;;;2.33;0.68;;;37.00;36.70;;;;;;5046087;28;20405;-84
2022/07/12 12:39:01;;;;;;;1.17;0.50;;;37.20;36.40;;;;;;5039737;28;20382;-86
2022/07/12 12:41:41;;;;;;;0.63;0.60;;;37.40;36.70;;;;;;5043621;28;20037;-88
2022/07/12 12:44:16;;;;;;;0.60;0.60;;;37.30;36.30;;;;;;5050490;28;20021;-88
2022/07/12 12:46:53;;;;;;;1.42;0.80;;;37.40;36.50;;;;;;5047148;28;20025;-85
2022/07/12 12:49:19;;;;;;;1.65;0.70;;;37.40;37.10;;;;;;5045270;28;20040;-86
2022/07/12 12:51:55;;;;;;;2.13;0.70;;;37.40;37.30;;;;;;5049256;28;20390;-86
2022/07/12 12:54:31;;;;;;;1.42;0.80;;;37.40;36.70;;;;;;5020649;28;20401;-86
2022/07/12 12:56:57;;;;;;;2.05;0.90;;;37.40;37.80;;;;;;5051067;28;20025;-84
2022/07/12 12:59:23;;;;;;;0.80;0.70;;;37.50;37.40;;;;;;5032708;28;20039;-87
2022/07/12 13:01:48;;;;;;;1.42;0.70;;;37.60;36.60;;;;;;5034624;28;20018;-86